Time;durP1;ratioP1;P1;durP2;ratioP2;P2;SDS_P1;SDS_P2;PMS_P1;PMS_P2;Temp;Humidity;BMP_temperature;BMP_pressure;BME280_temperature;BME280_humidity;BME280_pressure;Samples;Min_cycle;Max_cycle;Signal;HPM_P1;HPM_P2
2022/04/27 00:01:17;;;;;;;109.00;79.20;;;;;;;2.86;100.00;99191.35;104906;1274;60619;-74
2022/04/27 00:03:43;;;;;;;116.70;85.30;;;;;;;2.84;100.00;99189.64;104914;1271;60704;-75
2022/04/27 00:06:10;;;;;;;107.40;78.80;;;;;;;2.85;100.00;99191.04;104887;1271;60506;-76
2022/04/27 00:08:37;;;;;;;117.20;85.90;;;;;;;2.86;100.00;99187.11;105001;1271;60485;-74
2022/04/27 00:11:05;;;;;;;112.70;83.20;;;;;;;2.87;100.00;99185.35;105003;1271;60456;-76
2022/04/27 00:13:31;;;;;;;103.50;77.50;;;;;;;2.88;100.00;99183.75;105027;1271;70845;-76
2022/04/27 00:15:59;;;;;;;106.20;77.60;;;;;;;2.85;100.00;99189.44;104929;1272;60748;-74
2022/04/27 00:18:25;;;;;;;104.90;77.60;;;;;;;2.84;100.00;99192.63;105017;1271;60494;-75
2022/04/27 00:20:54;;;;;;;104.80;79.10;;;;;;;2.85;100.00;99198.04;104977;1271;60577;-75
2022/04/27 00:23:24;;;;;;;104.40;79.80;;;;;;;2.85;100.00;99196.63;104947;1272;75630;-76
2022/04/27 00:25:50;;;;;;;103.60;78.20;;;;;;;2.86;100.00;99197.14;105006;1271;69284;-75
2022/04/27 00:28:37;;;;;;;116.40;86.80;;;;;;;2.85;100.00;99196.65;104986;1271;71507;-74
2022/04/27 00:31:04;;;;;;;113.10;86.40;;;;;;;2.84;100.00;99196.33;105003;1271;60696;-74
2022/04/27 00:33:32;;;;;;;109.30;81.50;;;;;;;2.82;100.00;99195.84;104987;1271;60569;-75
2022/04/27 00:35:58;;;;;;;96.40;72.20;;;;;;;2.77;100.00;99199.73;104917;1271;74059;-74
2022/04/27 00:38:24;;;;;;;98.80;74.00;;;;;;;2.72;100.00;99199.35;104987;1271;60452;-75
2022/04/27 00:40:50;;;;;;;114.10;85.00;;;;;;;2.68;100.00;99199.47;105028;1271;60818;-74
2022/04/27 00:43:34;;;;;;;120.10;87.10;;;;;;;2.66;100.00;99199.19;104992;1271;60826;-75
2022/04/27 00:46:03;;;;;;;113.50;88.50;;;;;;;2.65;100.00;99204.45;105073;1271;60994;-74
2022/04/27 00:48:30;;;;;;;148.80;112.20;;;;;;;2.67;100.00;99199.50;105083;1271;75499;-75
2022/04/27 00:50:59;;;;;;;146.00;110.00;;;;;;;2.72;100.00;99196.17;105029;1271;60351;-74
2022/04/27 00:53:27;;;;;;;141.50;108.10;;;;;;;2.75;100.00;99199.05;105007;1271;72465;-76
2022/04/27 00:55:53;;;;;;;149.70;112.80;;;;;;;2.77;100.00;99199.71;104988;1271;60414;-75
2022/04/27 00:58:21;;;;;;;143.00;107.00;;;;;;;2.79;100.00;99201.57;104965;1271;60571;-75
2022/04/27 01:00:47;;;;;;;140.40;109.40;;;;;;;2.82;100.00;99199.39;104892;1271;75504;-75
2022/04/27 01:03:14;;;;;;;130.50;100.50;;;;;;;2.84;100.00;99198.25;104989;1271;60541;-75
2022/04/27 01:05:42;;;;;;;119.40;93.70;;;;;;;2.86;100.00;99198.55;104981;1271;72462;-75
2022/04/27 01:08:09;;;;;;;118.30;92.20;;;;;;;2.88;100.00;99196.38;104991;1271;60436;-74
2022/04/27 01:10:35;;;;;;;120.10;90.70;;;;;;;2.86;100.00;99197.30;105027;1271;62302;-75
2022/04/27 01:13:01;;;;;;;118.60;93.40;;;;;;;2.83;100.00;99198.61;104991;1271;60497;-75
2022/04/27 01:15:33;;;;;;;139.10;108.10;;;;;;;2.83;100.00;99197.42;105012;1271;60486;-74
2022/04/27 01:18:00;;;;;;;145.30;111.00;;;;;;;2.83;100.00;99197.76;105004;1271;73384;-73
2022/04/27 01:20:35;;;;;;;139.20;104.30;;;;;;;2.85;100.00;99200.87;105000;1270;60547;-75
2022/04/27 01:23:02;;;;;;;137.80;105.60;;;;;;;2.86;100.00;99205.39;104992;1271;61035;-71
2022/04/27 01:25:30;;;;;;;147.20;107.80;;;;;;;2.87;100.00;99203.77;104998;1271;60616;-75
2022/04/27 01:27:56;;;;;;;145.10;109.40;;;;;;;2.89;100.00;99203.70;104993;1271;67408;-74
2022/04/27 01:30:22;;;;;;;141.80;110.70;;;;;;;2.91;100.00;99206.45;104866;1271;60636;-76
2022/04/27 01:32:48;;;;;;;142.40;106.00;;;;;;;2.92;100.00;99206.95;105003;1272;60577;-76
2022/04/27 01:35:15;;;;;;;149.90;111.00;;;;;;;2.93;100.00;99201.84;105123;1271;61042;-74
2022/04/27 01:38:00;;;;;;;148.00;112.60;;;;;;;2.93;100.00;99199.90;104970;1271;60572;-76
2022/04/27 01:40:26;;;;;;;143.60;109.50;;;;;;;2.94;100.00;99203.20;104980;1271;68766;-75
2022/04/27 01:42:53;;;;;;;150.90;116.20;;;;;;;2.95;100.00;99203.34;104988;1271;60510;-76
2022/04/27 01:45:19;;;;;;;142.70;113.50;;;;;;;2.97;100.00;99205.20;105012;1271;60571;-73
2022/04/27 01:47:45;;;;;;;143.20;109.70;;;;;;;2.99;100.00;99206.54;105008;1271;60596;-75
2022/04/27 01:50:12;;;;;;;142.50;107.50;;;;;;;3.01;100.00;99206.30;104984;1271;60466;-75
2022/04/27 01:55:23;;;;;;;132.30;102.40;;;;;;;3.02;100.00;99217.48;104964;1271;71690;-75
2022/04/27 01:57:49;;;;;;;128.20;96.80;;;;;;;3.00;100.00;99215.98;104967;1271;60484;-75
2022/04/27 02:00:47;;;;;;;116.00;91.10;;;;;;;2.95;100.00;99221.77;104991;1271;60597;-79
2022/04/27 02:03:15;;;;;;;112.70;88.30;;;;;;;2.88;100.00;99219.36;104989;1271;74064;-76
2022/04/27 02:05:47;;;;;;;113.00;89.00;;;;;;;2.83;100.00;99213.89;105159;1271;69138;-77
2022/04/27 02:08:13;;;;;;;111.80;88.70;;;;;;;2.77;100.00;99213.74;104996;1271;74435;-76
2022/04/27 02:10:39;;;;;;;117.70;91.90;;;;;;;2.72;100.00;99216.02;104834;1271;60485;-76
2022/04/27 02:13:08;;;;;;;122.10;93.30;;;;;;;2.68;100.00;99216.48;105007;1271;60392;-75
2022/04/27 02:15:35;;;;;;;124.90;100.40;;;;;;;2.66;100.00;99220.77;104987;1271;74718;-75
2022/04/27 02:18:02;;;;;;;124.60;98.50;;;;;;;2.68;100.00;99221.05;104885;1271;69397;-74
2022/04/27 02:20:29;;;;;;;126.10;99.30;;;;;;;2.70;100.00;99218.70;105005;1271;73319;-74
2022/04/27 02:22:55;;;;;;;126.80;99.30;;;;;;;2.72;100.00;99217.77;104965;1271;60507;-76
2022/04/27 02:25:25;;;;;;;121.00;95.10;;;;;;;2.71;100.00;99217.79;104879;1271;60702;-76
2022/04/27 02:27:52;;;;;;;130.80;101.60;;;;;;;2.72;100.00;99214.59;105012;1271;75035;-76
2022/04/27 02:30:20;;;;;;;131.90;102.50;;;;;;;2.73;100.00;99207.19;105012;1271;70233;-76
2022/04/27 02:32:46;;;;;;;132.80;103.40;;;;;;;2.75;100.00;99210.12;105074;1271;72339;-75
2022/04/27 02:35:14;;;;;;;131.50;102.30;;;;;;;2.78;100.00;99213.54;104961;1271;60535;-76
2022/04/27 02:37:40;;;;;;;125.20;99.20;;;;;;;2.81;100.00;99212.73;105011;1271;60496;-76
2022/04/27 02:40:09;;;;;;;132.30;103.40;;;;;;;2.82;100.00;99216.05;104964;1271;60476;-76
2022/04/27 02:42:36;;;;;;;130.30;100.00;;;;;;;2.83;100.00;99217.95;105025;1271;69096;-75
2022/04/27 02:45:03;;;;;;;125.60;97.70;;;;;;;2.83;100.00;99220.21;104903;1271;73655;-75
2022/04/27 02:47:29;;;;;;;126.80;101.80;;;;;;;2.82;100.00;99221.66;104878;1271;60873;-75
2022/04/27 02:52:40;;;;;;;162.90;127.40;;;;;;;2.84;100.00;99217.73;104940;1271;72995;-74
2022/04/27 02:55:06;;;;;;;156.60;120.70;;;;;;;2.87;100.00;99220.09;104998;1271;60571;-75
2022/04/27 02:57:33;;;;;;;146.80;115.50;;;;;;;2.88;100.00;99223.25;104950;1271;60503;-75
2022/04/27 02:59:59;;;;;;;149.50;114.40;;;;;;;2.88;100.00;99227.27;104875;1272;60495;-75
2022/04/27 03:02:24;;;;;;;146.00;114.40;;;;;;;2.88;100.00;99227.11;104957;1271;60565;-76
2022/04/27 03:04:51;;;;;;;142.00;110.80;;;;;;;2.88;100.00;99226.40;104956;1271;60549;-77
2022/04/27 03:07:17;;;;;;;140.10;109.80;;;;;;;2.88;100.00;99229.19;104985;1271;60613;-76
2022/04/27 03:09:43;;;;;;;144.70;108.30;;;;;;;2.86;100.00;99231.69;104980;1271;60449;-75
2022/04/27 03:12:09;;;;;;;134.40;105.20;;;;;;;2.84;100.00;99234.04;104998;1271;60540;-76
2022/04/27 03:14:35;;;;;;;131.30;103.10;;;;;;;2.80;100.00;99236.98;104709;1274;251775;-75
2022/04/27 03:17:01;;;;;;;127.40;102.50;;;;;;;2.75;100.00;99237.83;105041;1271;60949;-76
2022/04/27 03:19:27;;;;;;;128.90;102.20;;;;;;;2.73;100.00;99244.75;104995;1271;75077;-75
2022/04/27 03:21:53;;;;;;;133.20;107.40;;;;;;;2.70;100.00;99244.33;104969;1271;60633;-75
2022/04/27 03:24:19;;;;;;;141.10;107.70;;;;;;;2.68;100.00;99247.19;104992;1271;60468;-74
2022/04/27 03:26:47;;;;;;;141.90;109.30;;;;;;;2.68;100.00;99251.22;104990;1271;60487;-76
2022/04/27 03:29:16;;;;;;;140.90;109.80;;;;;;;2.70;100.00;99250.30;104975;1271;60597;-74
2022/04/27 03:31:42;;;;;;;143.50;110.20;;;;;;;2.72;100.00;99251.11;104962;1271;72755;-76
2022/04/27 03:34:08;;;;;;;142.60;111.70;;;;;;;2.74;100.00;99253.83;105115;1271;60398;-76
2022/04/27 03:36:34;;;;;;;137.00;107.90;;;;;;;2.77;100.00;99251.30;104988;1271;60469;-75
2022/04/27 03:39:01;;;;;;;128.80;104.30;;;;;;;2.79;100.00;99250.35;104979;1271;60361;-74
2022/04/27 03:41:28;;;;;;;127.50;100.70;;;;;;;2.82;100.00;99253.78;104967;1271;60586;-74
2022/04/27 03:43:55;;;;;;;126.40;102.50;;;;;;;2.83;100.00;99256.02;105001;1271;60516;-75
2022/04/27 03:46:22;;;;;;;121.50;98.60;;;;;;;2.84;100.00;99254.95;104974;1271;60392;-74
2022/04/27 03:48:48;;;;;;;122.60;98.10;;;;;;;2.86;100.00;99255.57;105020;1271;60493;-75
2022/04/27 03:51:14;;;;;;;112.10;95.00;;;;;;;2.90;100.00;99254.92;104993;1270;60484;-76
2022/04/27 03:53:40;;;;;;;100.70;86.60;;;;;;;2.94;100.00;99254.08;105006;1271;60924;-75
2022/04/27 03:56:06;;;;;;;99.50;86.00;;;;;;;3.09;100.00;99258.34;104981;1271;60594;-76
2022/04/27 03:58:32;;;;;;;104.50;87.10;;;;;;;3.31;100.00;99258.17;104964;1271;60510;-74
2022/04/27 04:00:59;;;;;;;102.20;87.60;;;;;;;3.56;100.00;99260.83;104982;1271;60490;-75
2022/04/27 04:03:25;;;;;;;95.40;80.60;;;;;;;3.88;100.00;99266.95;104866;1271;61035;-75
2022/04/27 04:05:51;;;;;;;107.20;93.10;;;;;;;4.05;100.00;99266.30;104972;1271;60491;-75
2022/04/27 04:08:17;;;;;;;118.40;98.90;;;;;;;4.19;100.00;99266.86;104993;1271;60668;-77
2022/04/27 04:10:45;;;;;;;105.20;91.90;;;;;;;4.48;100.00;99268.23;104940;1271;60456;-76
2022/04/27 04:13:12;;;;;;;105.80;92.30;;;;;;;4.74;100.00;99275.00;105088;1271;60411;-77
2022/04/27 04:15:38;;;;;;;97.60;82.80;;;;;;;4.88;100.00;99276.40;105044;1271;60465;-75
2022/04/27 04:18:06;;;;;;;99.00;84.10;;;;;;;5.00;100.00;99277.33;105016;1271;60628;-77
2022/04/27 04:20:32;;;;;;;90.80;79.90;;;;;;;5.10;100.00;99277.83;105176;1271;60491;-76
2022/04/27 04:22:58;;;;;;;95.60;82.10;;;;;;;5.33;100.00;99276.89;105020;1271;60332;-78
2022/04/27 04:30:56;;;;;;;82.90;73.20;;;;;;;6.45;100.00;99282.48;105049;1271;69185;-76
2022/04/27 04:33:22;;;;;;;83.60;74.60;;;;;;;6.77;100.00;99281.89;105255;1271;74411;-75
2022/04/27 04:35:48;;;;;;;81.80;73.00;;;;;;;6.97;100.00;99279.36;104997;1271;60591;-75
2022/04/27 04:38:15;;;;;;;81.20;72.60;;;;;;;7.13;100.00;99277.55;105011;1271;60510;-76
2022/04/27 04:40:42;;;;;;;79.50;70.90;;;;;;;7.37;100.00;99280.45;104979;1271;60572;-75
2022/04/27 04:43:09;;;;;;;83.20;74.40;;;;;;;7.61;100.00;99283.64;105027;1271;70544;-75
2022/04/27 04:45:35;;;;;;;84.40;75.30;;;;;;;7.76;100.00;99285.59;104968;1271;74427;-74
2022/04/27 04:48:01;;;;;;;90.90;81.60;;;;;;;7.94;100.00;99285.88;104989;1271;60593;-77
2022/04/27 04:50:27;;;;;;;83.70;74.80;;;;;;;8.22;100.00;99286.02;105032;1271;60918;-74
2022/04/27 04:52:53;;;;;;;85.30;76.60;;;;;;;8.44;100.00;99286.66;105001;1271;60920;-73
2022/04/27 04:55:19;;;;;;;76.90;68.60;;;;;;;8.71;100.00;99289.61;104928;1271;60557;-75
2022/04/27 04:57:45;;;;;;;77.60;69.20;;;;;;;9.10;100.00;99285.88;105017;1271;60431;-74
2022/04/27 05:00:13;;;;;;;76.30;68.10;;;;;;;9.48;100.00;99283.52;104778;1271;60969;-74
2022/04/27 05:02:39;;;;;;;75.20;67.40;;;;;;;9.87;100.00;99284.63;105024;1271;60513;-75
2022/04/27 05:05:06;;;;;;;71.00;62.90;;;;;;;10.10;100.00;99288.55;104994;1271;60861;-76
2022/04/27 05:07:34;;;;;;;69.00;61.80;;;;;;;10.36;100.00;99290.03;105188;1271;70425;-74
2022/04/27 05:10:00;;;;;;;63.70;56.90;;;;;;;10.54;100.00;99290.00;105002;1271;60479;-75
2022/04/27 05:12:27;;;;;;;54.90;48.70;;;;;;;10.76;100.00;99291.27;105004;1271;61007;-75
2022/04/27 05:14:54;;;;;;;52.90;47.30;;;;;;;11.21;100.00;99289.29;105020;1271;60600;-76
2022/04/27 05:17:21;;;;;;;52.20;46.70;;;;;;;11.71;100.00;99290.27;104885;1272;60592;-74
2022/04/27 05:19:49;;;;;;;51.10;45.70;;;;;;;12.09;100.00;99293.45;105010;1271;60581;-75
2022/04/27 05:22:15;;;;;;;52.20;46.70;;;;;;;12.42;100.00;99296.36;105062;1271;74369;-75
2022/04/27 05:24:41;;;;;;;51.70;46.40;;;;;;;12.62;100.00;99297.26;104940;1271;60489;-76
2022/04/27 05:27:07;;;;;;;52.10;46.40;;;;;;;12.85;100.00;99298.11;105031;1271;60588;-75
2022/04/27 05:32:17;;;;;;;51.10;45.70;;;;;;;13.42;100.00;99298.30;105012;1271;67376;-76
2022/04/27 05:34:44;;;;;;;42.10;37.90;;;;;;;13.65;100.00;99295.86;104964;1271;60512;-76
2022/04/27 05:37:10;;;;;;;44.30;39.60;;;;;;;13.73;100.00;99301.76;104870;1271;60481;-75
2022/04/27 05:39:40;;;;;;;40.60;36.30;;;;;;;13.80;100.00;99301.89;105202;1271;60467;-76
2022/04/27 05:42:06;;;;;;;34.10;30.10;;;;;;;13.92;100.00;99304.95;105201;1271;74748;-74
2022/04/27 05:44:33;;;;;;;29.80;26.30;;;;;;;13.95;100.00;99301.13;105175;1271;60485;-74
2022/04/27 05:46:58;;;;;;;28.40;25.20;;;;;;;13.52;100.00;99304.54;105000;1271;60507;-76
2022/04/27 05:49:24;;;;;;;30.50;27.10;;;;;;;12.89;100.00;99312.42;105007;1271;60613;-75
2022/04/27 05:51:51;;;;;;;26.30;23.40;;;;;;;12.43;100.00;99316.20;105022;1271;60594;-74
2022/04/27 05:54:17;;;;;;;30.00;23.70;;;;;;;11.98;100.00;99319.30;105046;1271;60449;-74
2022/04/27 05:56:43;;;;;;;30.70;26.20;;;;;;;11.51;100.00;99320.26;105078;1271;60626;-74
2022/04/27 05:59:10;;;;;;;32.30;27.10;;;;;;;11.08;100.00;99325.53;105041;1271;60606;-74
2022/04/27 06:01:37;;;;;;;36.40;29.50;;;;;;;10.72;100.00;99327.77;105107;1271;60492;-75
2022/04/27 06:04:04;;;;;;;32.20;26.90;;;;;;;10.44;100.00;99333.58;105080;1271;60590;-75
2022/04/27 06:06:30;;;;;;;31.50;26.60;;;;;;;10.19;100.00;99335.77;105016;1271;60476;-75
2022/04/27 06:08:56;;;;;;;35.40;27.10;;;;;;;9.94;100.00;99339.03;105037;1271;60532;-74
2022/04/27 06:11:22;;;;;;;31.30;26.70;;;;;;;9.77;100.00;99336.34;104996;1271;60588;-74
2022/04/27 06:13:49;;;;;;;33.80;27.30;;;;;;;9.64;100.00;99337.56;105002;1271;60603;-74
2022/04/27 06:16:15;;;;;;;33.10;28.00;;;;;;;9.53;100.00;99341.74;105023;1271;60543;-76
2022/04/27 06:18:42;;;;;;;30.30;25.60;;;;;;;9.45;100.00;99347.52;105037;1271;60595;-75
2022/04/27 06:21:09;;;;;;;31.70;26.60;;;;;;;9.39;100.00;99347.20;105031;1271;60479;-75
2022/04/27 06:23:37;;;;;;;32.20;27.00;;;;;;;9.41;100.00;99349.00;104861;1271;61020;-76
2022/04/27 06:26:05;;;;;;;32.60;26.60;;;;;;;9.43;100.00;99348.70;105033;1271;61454;-74
2022/04/27 06:28:33;;;;;;;37.90;27.80;;;;;;;9.42;100.00;99352.48;105057;1271;60385;-75
2022/04/27 06:30:59;;;;;;;32.90;26.90;;;;;;;9.42;100.00;99355.88;105035;1271;74368;-74
2022/04/27 06:33:26;;;;;;;33.10;26.90;;;;;;;9.46;100.00;99357.94;104997;1271;60390;-75
2022/04/27 06:35:53;;;;;;;32.30;27.00;;;;;;;9.54;100.00;99362.30;105039;1271;60566;-75
2022/04/27 06:38:20;;;;;;;34.40;27.10;;;;;;;9.55;100.00;99362.42;104748;1271;60498;-75
2022/04/27 06:40:46;;;;;;;30.80;24.80;;;;;;;9.53;100.00;99364.65;105030;1271;60462;-75
2022/04/27 06:43:14;;;;;;;30.30;25.80;;;;;;;9.55;100.00;99362.23;105000;1271;60597;-76
2022/04/27 06:45:40;;;;;;;29.20;24.70;;;;;;;9.58;100.00;99365.27;105032;1271;70465;-75
2022/04/27 06:48:06;;;;;;;28.90;25.40;;;;;;;9.64;100.00;99364.05;105016;1271;60619;-76
2022/04/27 06:50:32;;;;;;;29.70;23.50;;;;;;;9.77;100.00;99370.21;104997;1271;60510;-75
2022/04/27 06:53:01;;;;;;;28.30;24.50;;;;;;;9.91;100.00;99366.55;105047;1271;60523;-75
2022/04/27 06:55:27;;;;;;;30.60;24.90;;;;;;;10.07;100.00;99369.70;105034;1271;72618;-75
2022/04/27 06:57:54;;;;;;;28.60;23.90;;;;;;;10.23;100.00;99372.84;105046;1271;70206;-74
2022/04/27 07:00:21;;;;;;;28.20;23.90;;;;;;;10.27;100.00;99379.73;105054;1271;60901;-75
2022/04/27 07:02:47;;;;;;;37.70;25.80;;;;;;;10.32;100.00;99375.91;105018;1271;61176;-76
2022/04/27 07:05:20;;;;;;;31.40;24.10;;;;;;;10.43;100.00;99374.02;105046;1271;60874;-75
2022/04/27 07:07:47;;;;;;;26.90;23.50;;;;;;;10.56;100.00;99378.16;105059;1271;75436;-77
2022/04/27 07:10:15;;;;;;;26.80;23.60;;;;;;;10.66;100.00;99378.80;105001;1271;68973;-76
2022/04/27 07:12:44;;;;;;;29.60;26.10;;;;;;;10.69;100.00;99381.45;105111;1271;73246;-75
2022/04/27 07:15:10;;;;;;;27.80;24.40;;;;;;;10.75;100.00;99383.22;105011;1271;61239;-75
2022/04/27 07:17:36;;;;;;;35.90;24.70;;;;;;;10.90;100.00;99384.62;105041;1271;60584;-76
2022/04/27 07:20:05;;;;;;;28.10;24.60;;;;;;;11.03;100.00;99381.52;105036;1271;60512;-75
2022/04/27 07:22:31;;;;;;;26.70;23.40;;;;;;;11.12;100.00;99385.55;105025;1271;69412;-75
2022/04/27 07:24:57;;;;;;;34.00;25.80;;;;;;;11.22;100.00;99392.59;104971;1271;60502;-74
2022/04/27 07:27:23;;;;;;;30.00;24.90;;;;;;;11.32;100.00;99389.08;105011;1271;60918;-75
2022/04/27 07:29:49;;;;;;;29.20;25.00;;;;;;;11.38;100.00;99392.41;105070;1271;60699;-74
2022/04/27 07:32:15;;;;;;;30.30;26.10;;;;;;;11.50;100.00;99392.23;105006;1271;60542;-75
2022/04/27 07:34:41;;;;;;;27.50;24.20;;;;;;;11.66;100.00;99395.83;104996;1271;60967;-78
2022/04/27 07:37:07;;;;;;;23.80;21.20;;;;;;;11.82;100.00;99395.45;104934;1271;60523;-74
2022/04/27 07:39:33;;;;;;;28.70;24.80;;;;;;;11.93;100.00;99395.11;105082;1271;60501;-75
2022/04/27 07:41:59;;;;;;;27.80;23.80;;;;;;;12.04;100.00;99395.46;105005;1271;75693;-75
2022/04/27 07:44:25;;;;;;;28.20;23.90;;;;;;;12.17;100.00;99399.40;105022;1271;61243;-74
2022/04/27 07:46:51;;;;;;;30.80;24.60;;;;;;;12.29;100.00;99399.48;104986;1271;60564;-75
2022/04/27 07:49:19;;;;;;;29.50;25.60;;;;;;;12.41;100.00;99397.80;105025;1271;60593;-75
2022/04/27 07:51:50;;;;;;;29.20;24.60;;;;;;;12.48;100.00;99400.55;104990;1271;61060;-76
2022/04/27 07:54:16;;;;;;;;;;;;;;;12.52;100.00;99401.70;104934;1272;72584;-74
2022/04/27 07:56:42;;;;;;;28.00;23.60;;;;;;;12.61;100.00;99401.27;105000;1271;60596;-73
2022/04/27 07:59:08;;;;;;;27.70;24.30;;;;;;;12.66;100.00;99406.23;104959;1271;60594;-75
2022/04/27 08:01:34;;;;;;;29.00;25.90;;;;;;;12.67;100.00;99408.31;104902;1272;60620;-75
2022/04/27 08:04:00;;;;;;;29.00;25.90;;;;;;;12.66;100.00;99412.52;105040;1271;60504;-75
2022/04/27 08:06:26;;;;;;;27.60;24.60;;;;;;;12.60;100.00;99416.29;105043;1271;60611;-75
2022/04/27 08:08:53;;;;;;;28.50;25.40;;;;;;;12.70;100.00;99411.84;105018;1271;60509;-77
2022/04/27 08:11:19;;;;;;;29.40;26.30;;;;;;;12.86;100.00;99413.05;105011;1271;61045;-77
2022/04/27 08:13:45;;;;;;;26.60;23.80;;;;;;;13.00;100.00;99415.15;104957;1271;60578;-76
2022/04/27 08:16:12;;;;;;;28.00;23.90;;;;;;;13.18;100.00;99417.40;105001;1271;60507;-72
2022/04/27 08:18:41;;;;;;;29.70;25.00;;;;;;;13.39;100.00;99417.17;105037;1271;60993;-77
2022/04/27 08:21:16;;;;;;;28.30;25.20;;;;;;;13.55;100.00;99419.25;105060;1271;60628;-77
2022/04/27 08:23:47;;;;;;;26.40;23.50;;;;;;;13.73;100.00;99417.92;105021;1271;74554;-74
2022/04/27 08:26:14;;;;;;;27.00;24.00;;;;;;;13.85;100.00;99420.98;105142;1271;60841;-75
2022/04/27 08:28:42;;;;;;;25.80;22.90;;;;;;;13.97;100.00;99419.75;104997;1271;60469;-74
2022/04/27 08:31:11;;;;;;;26.30;23.40;;;;;;;13.96;100.00;99420.91;105009;1271;74109;-76
2022/04/27 08:33:37;;;;;;;26.20;23.40;;;;;;;13.99;100.00;99423.92;105066;1271;70303;-76
2022/04/27 08:36:04;;;;;;;27.00;23.20;;;;;;;14.04;100.00;99424.95;104981;1271;60513;-76
2022/04/27 08:38:30;;;;;;;25.50;22.80;;;;;;;14.17;100.00;99420.41;104804;1274;60505;-76
2022/04/27 08:40:57;;;;;;;25.00;22.40;;;;;;;14.36;100.00;99422.75;104988;1271;60484;-75
2022/04/27 08:43:23;;;;;;;24.50;22.00;;;;;;;14.56;100.00;99424.67;105047;1271;72662;-75
2022/04/27 08:45:51;;;;;;;24.20;21.60;;;;;;;14.69;100.00;99425.79;105025;1271;60596;-75
2022/04/27 08:48:18;;;;;;;23.00;20.60;;;;;;;14.85;100.00;99421.20;104885;1274;73315;-75
2022/04/27 08:50:45;;;;;;;22.50;20.10;;;;;;;15.07;100.00;99426.95;105225;1271;60401;-74
2022/04/27 08:53:11;;;;;;;21.40;19.20;;;;;;;15.27;100.00;99428.38;104978;1271;60722;-74
2022/04/27 08:55:40;;;;;;;21.90;19.60;;;;;;;15.41;100.00;99422.66;105004;1271;60507;-76
2022/04/27 08:58:14;;;;;;;21.40;19.30;;;;;;;15.44;100.00;99420.61;105148;1271;70220;-76
2022/04/27 09:00:43;;;;;;;22.40;19.90;;;;;;;15.53;100.00;99418.65;105038;1271;73384;-75
2022/04/27 09:03:25;;;;;;;23.20;20.90;;;;;;;15.57;100.00;99422.20;104844;1272;60786;-75
2022/04/27 09:06:10;;;;;;;21.90;19.60;;;;;;;15.66;100.00;99419.17;105003;1271;61904;-76
2022/04/27 09:08:45;;;;;;;22.70;20.40;;;;;;;15.73;100.00;99422.39;105190;1271;75450;-75
2022/04/27 09:11:12;;;;;;;21.50;18.30;;;;;;;15.80;100.00;99423.98;105047;1271;70213;-76
2022/04/27 09:13:39;;;;;;;20.30;18.30;;;;;;;15.88;100.00;99418.20;105031;1271;60481;-75
2022/04/27 09:16:08;;;;;;;18.70;16.80;;;;;;;15.96;100.00;99419.62;105153;1271;60513;-75
2022/04/27 09:21:52;;;;;;;18.60;16.60;;;;;;;15.92;99.49;99417.48;105039;1271;73541;-77
2022/04/27 09:24:19;;;;;;;18.10;16.30;;;;;;;15.80;98.25;99423.16;105040;1271;70388;-75
2022/04/27 09:26:50;;;;;;;18.50;16.60;;;;;;;15.74;98.67;99425.39;105030;1271;73385;-76
2022/04/27 09:29:24;;;;;;;19.00;17.00;;;;;;;15.73;97.82;99422.40;105079;1271;60495;-76
2022/04/27 09:31:59;;;;;;;17.50;15.70;;;;;;;15.59;97.09;99424.42;105033;1271;61914;-74
2022/04/27 09:34:29;;;;;;;18.50;16.70;;;;;;;15.51;97.03;99423.61;105014;1271;74957;-75
2022/04/27 09:37:02;;;;;;;17.10;15.20;;;;;;;15.42;96.76;99422.23;104888;1271;70626;-75
2022/04/27 09:39:28;;;;;;;17.40;15.50;;;;;;;15.51;96.83;99416.52;105062;1271;74447;-74
2022/04/27 09:42:05;;;;;;;17.40;15.60;;;;;;;15.45;96.00;99414.84;105010;1271;61380;-74
2022/04/27 09:44:33;;;;;;;16.90;15.20;;;;;;;15.48;96.53;99414.72;105067;1271;61328;-74
2022/04/27 09:47:04;;;;;;;15.90;14.30;;;;;;;15.68;96.69;99414.90;105072;1270;75318;-75
2022/04/27 09:49:31;;;;;;;14.80;13.40;;;;;;;16.03;97.77;99414.24;105100;1271;68955;-75
2022/04/27 09:52:00;;;;;;;16.80;15.20;;;;;;;16.43;97.64;99406.02;104966;1271;73288;-75
2022/04/27 09:54:28;;;;;;;16.70;15.10;;;;;;;16.55;95.67;99407.39;105210;1272;61472;-75
2022/04/27 09:56:56;;;;;;;23.80;15.60;;;;;;;16.38;95.36;99408.76;105173;1271;61186;-75
2022/04/27 09:59:29;;;;;;;20.90;16.20;;;;;;;16.20;94.20;99409.05;105047;1271;75365;-75
2022/04/27 10:01:59;;;;;;;15.80;14.20;;;;;;;16.00;95.68;99414.30;105008;1271;69090;-75
2022/04/27 10:04:31;;;;;;;31.70;17.70;;;;;;;15.92;95.26;99412.06;105110;1271;74259;-75
2022/04/27 10:07:00;;;;;;;16.10;14.40;;;;;;;15.82;95.52;99411.16;104904;1271;61277;-74
2022/04/27 10:09:29;;;;;;;16.10;14.30;;;;;;;15.75;95.69;99411.37;104938;1271;61252;-74
2022/04/27 10:11:58;;;;;;;19.00;15.60;;;;;;;15.66;95.75;99410.44;104923;1274;76277;-75
2022/04/27 10:14:28;;;;;;;17.70;14.90;;;;;;;15.50;95.21;99409.54;105035;1271;70218;-76
2022/04/27 10:16:55;;;;;;;19.80;16.40;;;;;;;15.21;94.55;99414.23;105017;1274;74209;-75
2022/04/27 10:19:21;;;;;;;16.50;14.90;;;;;;;14.90;94.61;99416.11;105082;1271;61323;-75
2022/04/27 10:22:05;;;;;;;18.40;16.30;;;;;;;14.62;94.70;99422.96;105033;1271;61393;-74
2022/04/27 10:24:34;;;;;;;19.10;15.40;;;;;;;14.38;95.43;99419.39;104869;1271;76253;-74
2022/04/27 10:27:40;;;;;;;18.00;16.10;;;;;;;14.31;96.08;99419.00;105016;1271;69293;-73
2022/04/27 10:30:12;;;;;;;19.40;15.70;;;;;;;14.34;96.36;99420.02;105050;1271;73545;-75
2022/04/27 10:32:39;;;;;;;17.80;15.40;;;;;;;14.39;96.90;99420.06;104907;1272;61371;-75
2022/04/27 10:35:30;;;;;;;20.60;15.70;;;;;;;14.49;97.05;99422.61;104899;1274;62085;-74
2022/04/27 10:38:02;;;;;;;18.60;14.90;;;;;;;14.69;97.26;99429.73;105061;1271;76545;-75
2022/04/27 10:40:40;;;;;;;16.20;14.30;;;;;;;14.87;96.92;99427.06;104971;1271;69525;-74
2022/04/27 10:43:12;;;;;;;17.00;15.20;;;;;;;15.07;96.70;99428.24;105032;1271;73462;-73
2022/04/27 10:45:43;;;;;;;18.40;15.50;;;;;;;15.28;96.21;99426.36;105005;1271;61263;-75
2022/04/27 10:48:50;;;;;;;16.70;14.90;;;;;;;15.41;95.71;99429.63;105099;1271;61405;-74
2022/04/27 10:51:16;;;;;;;18.80;16.80;;;;;;;15.59;95.30;99431.02;105015;1271;76144;-76
2022/04/27 10:53:48;;;;;;;18.90;16.90;;;;;;;15.63;94.26;99429.85;105004;1271;61269;-76
2022/04/27 10:56:23;;;;;;;18.90;16.10;;;;;;;15.47;93.51;99432.58;105072;1271;74689;-76
2022/04/27 10:58:49;;;;;;;17.30;15.70;;;;;;;15.30;93.57;99429.98;105059;1271;61285;-76
2022/04/27 11:01:23;;;;;;;19.60;17.60;;;;;;;15.30;94.46;99438.23;105023;1271;61297;-75
2022/04/27 11:04:00;;;;;;;18.10;16.20;;;;;;;15.40;94.93;99438.70;105173;1271;76714;-75
2022/04/27 11:06:27;;;;;;;21.00;15.80;;;;;;;15.48;94.76;99436.21;104956;1271;69001;-74
2022/04/27 11:09:24;;;;;;;18.30;16.40;;;;;;;15.61;94.41;99435.90;104877;1271;73502;-75
2022/04/27 11:11:56;;;;;;;19.00;17.00;;;;;;;15.63;93.18;99436.32;104978;1271;61400;-75
2022/04/27 11:14:34;;;;;;;18.20;16.20;;;;;;;15.53;93.40;99433.00;105099;1271;61329;-75
2022/04/27 11:17:00;;;;;;;54.80;22.60;;;;;;;15.56;93.27;99435.79;105071;1271;76170;-75
2022/04/27 11:19:38;;;;;;;17.60;15.70;;;;;;;15.55;93.43;99437.08;105019;1271;61269;-75
2022/04/27 11:22:15;;;;;;;21.30;17.80;;;;;;;15.61;93.39;99435.89;105100;1271;73338;-75
2022/04/27 11:24:50;;;;;;;20.20;15.90;;;;;;;15.72;93.88;99433.77;104842;1274;61393;-75